Time;durP1;ratioP1;P1;durP2;ratioP2;P2;SDS_P1;SDS_P2;PMS_P1;PMS_P2;Temp;Humidity;BMP_temperature;BMP_pressure;BME280_temperature;BME280_humidity;BME280_pressure;Samples;Min_cycle;Max_cycle;Signal;HPM_P1;HPM_P2
2023/01/14 00:01:28;;;;;;;8.43;2.30;;;8.30;99.90;;;;;;5025097;28;20580;-69
2023/01/14 00:03:56;;;;;;;13.37;3.00;;;8.20;99.90;;;;;;5028029;28;20203;-70
2023/01/14 00:06:28;;;;;;;10.23;2.60;;;8.20;99.90;;;;;;5026249;28;20677;-69
2023/01/14 00:09:03;;;;;;;15.53;2.57;;;8.20;99.90;;;;;;5022383;28;20237;-70
2023/01/14 00:12:03;;;;;;;16.67;3.10;;;8.20;99.90;;;;;;5026734;28;20225;-70
2023/01/14 00:14:27;;;;;;;14.37;3.00;;;8.20;99.90;;;;;;5026189;28;20203;-68
2023/01/14 00:16:54;;;;;;;14.40;3.00;;;8.20;99.90;;;;;;5026035;28;20234;-70
2023/01/14 00:19:23;;;;;;;11.63;2.47;;;8.10;99.90;;;;;;5029243;28;20224;-69
2023/01/14 00:21:50;;;;;;;13.00;2.73;;;8.20;99.90;;;;;;5023065;28;20213;-69
2023/01/14 00:24:19;;;;;;;9.20;2.33;;;8.20;99.90;;;;;;5022483;28;20211;-70
2023/01/14 00:26:50;;;;;;;12.20;3.30;;;8.20;99.90;;;;;;5026300;28;20200;-70
2023/01/14 00:29:20;;;;;;;14.33;2.93;;;8.20;99.90;;;;;;5025064;28;20263;-70
2023/01/14 00:31:47;;;;;;;16.40;2.73;;;8.10;99.90;;;;;;5028897;28;20219;-68
2023/01/14 00:34:15;;;;;;;9.40;3.03;;;8.20;99.90;;;;;;5028434;28;20681;-69
2023/01/14 00:36:45;;;;;;;7.30;2.60;;;8.20;99.90;;;;;;5025814;28;20214;-70
2023/01/14 00:39:13;;;;;;;15.13;2.50;;;8.10;99.90;;;;;;5024838;28;20245;-69
2023/01/14 00:41:40;;;;;;;19.73;3.63;;;8.20;99.90;;;;;;5020884;28;20208;-69
2023/01/14 00:44:07;;;;;;;13.23;3.10;;;8.20;99.90;;;;;;5025076;28;20198;-69
2023/01/14 00:46:36;;;;;;;7.53;2.23;;;8.20;99.90;;;;;;5024432;28;20310;-69
2023/01/14 00:49:04;;;;;;;11.43;3.30;;;8.20;99.90;;;;;;5025658;28;20684;-69
2023/01/14 00:51:32;;;;;;;13.00;3.07;;;8.20;99.90;;;;;;5024575;28;20206;-69
2023/01/14 00:54:00;;;;;;;16.13;2.77;;;8.20;99.90;;;;;;5023635;28;20325;-69
2023/01/14 00:56:28;;;;;;;11.87;2.83;;;8.20;99.90;;;;;;5023805;28;20209;-69
2023/01/14 00:58:55;;;;;;;10.53;3.63;;;8.20;99.90;;;;;;5024543;28;20302;-69
2023/01/14 01:01:22;;;;;;;16.47;3.00;;;8.20;99.90;;;;;;5016684;28;20224;-69
2023/01/14 01:03:52;;;;;;;12.03;2.87;;;8.20;99.90;;;;;;5021133;28;20868;-69
2023/01/14 01:06:20;;;;;;;17.07;3.60;;;8.20;99.90;;;;;;5022281;28;20307;-69
2023/01/14 01:08:48;;;;;;;12.37;3.27;;;8.20;99.90;;;;;;5028452;28;20231;-68
2023/01/14 01:11:18;;;;;;;10.67;2.63;;;8.20;99.90;;;;;;5028869;28;20205;-70
2023/01/14 01:13:44;;;;;;;8.57;2.43;;;8.20;99.90;;;;;;5028381;28;20240;-70
2023/01/14 01:16:15;;;;;;;12.87;2.90;;;8.30;99.90;;;;;;5024371;28;20313;-70
2023/01/14 01:18:43;;;;;;;19.07;3.53;;;8.30;99.90;;;;;;5019099;28;20646;-69
2023/01/14 01:21:12;;;;;;;10.93;2.63;;;8.30;99.90;;;;;;5007939;28;20217;-69
2023/01/14 01:23:40;;;;;;;8.20;2.40;;;8.30;99.90;;;;;;5026724;28;20233;-69
2023/01/14 01:26:12;;;;;;;11.87;2.87;;;8.30;99.90;;;;;;5032577;28;20247;-69
2023/01/14 01:28:39;;;;;;;13.40;3.37;;;8.30;99.90;;;;;;5020776;28;20229;-70
2023/01/14 01:31:09;;;;;;;18.73;3.30;;;8.30;99.90;;;;;;5021531;28;20208;-69
2023/01/14 01:33:36;;;;;;;11.90;2.57;;;8.30;99.90;;;;;;5023959;28;20220;-69
2023/01/14 01:36:10;;;;;;;17.97;2.93;;;8.30;99.90;;;;;;5019171;28;20854;-70
2023/01/14 01:38:37;;;;;;;20.40;3.63;;;8.40;99.90;;;;;;5028199;28;20209;-69
2023/01/14 01:41:04;;;;;;;14.07;2.83;;;8.40;99.90;;;;;;5024319;28;20672;-70
2023/01/14 01:43:33;;;;;;;14.83;2.90;;;8.40;99.90;;;;;;5030381;28;20200;-70
2023/01/14 01:46:00;;;;;;;13.03;3.13;;;8.40;99.90;;;;;;5021705;28;20206;-70
2023/01/14 01:48:33;;;;;;;12.87;3.10;;;8.40;99.90;;;;;;5032417;28;20235;-70
2023/01/14 01:51:13;;;;;;;12.33;2.60;;;8.30;99.90;;;;;;5024034;28;20242;-71
2023/01/14 01:53:43;;;;;;;20.07;3.87;;;8.30;99.90;;;;;;5034098;28;20296;-69
2023/01/14 01:56:16;;;;;;;12.10;2.57;;;8.20;99.90;;;;;;5027833;28;20202;-70
2023/01/14 01:58:43;;;;;;;11.37;2.63;;;8.20;99.90;;;;;;5023858;28;20246;-70
2023/01/14 02:01:11;;;;;;;15.90;2.80;;;8.10;99.90;;;;;;5033215;28;20215;-68
2023/01/14 02:03:44;;;;;;;22.50;3.87;;;8.00;99.90;;;;;;5023610;28;20216;-71
2023/01/14 02:06:11;;;;;;;11.30;2.43;;;8.00;99.90;;;;;;5027270;28;20206;-70
2023/01/14 02:08:45;;;;;;;12.57;3.03;;;7.90;99.90;;;;;;5023736;28;20225;-70
2023/01/14 02:11:36;;;;;;;13.97;2.73;;;7.80;99.90;;;;;;5025515;28;20225;-70
2023/01/14 02:14:27;;;;;;;13.63;2.87;;;7.80;99.90;;;;;;5033167;28;20227;-70
2023/01/14 02:16:56;;;;;;;21.93;3.70;;;7.70;99.90;;;;;;5031871;28;20308;-70
2023/01/14 02:19:44;;;;;;;20.07;4.00;;;7.60;99.90;;;;;;5032025;28;20241;-70
2023/01/14 02:22:31;;;;;;;15.50;3.10;;;7.60;99.90;;;;;;5021629;28;20206;-70
2023/01/14 02:25:22;;;;;;;18.57;2.97;;;7.50;99.90;;;;;;5025555;28;20244;-70
2023/01/14 02:28:23;;;;;;;18.13;3.20;;;7.50;99.90;;;;;;5022718;28;20264;-70
2023/01/14 02:31:18;;;;;;;21.43;3.80;;;7.40;99.90;;;;;;5027270;28;20304;-70
2023/01/14 02:33:52;;;;;;;18.80;4.90;;;7.30;99.90;;;;;;5025879;28;20296;-69
2023/01/14 02:36:43;;;;;;;15.80;3.50;;;7.30;99.90;;;;;;5029793;28;20568;-69
2023/01/14 02:39:36;;;;;;;18.73;3.67;;;7.20;99.90;;;;;;5026917;28;20342;-70
2023/01/14 02:45:30;;;;;;;16.93;3.73;;;7.20;99.90;;;;;;5027371;28;20248;-70
2023/01/14 02:48:00;;;;;;;21.80;3.83;;;7.10;99.90;;;;;;5012007;28;20230;-70
2023/01/14 02:50:28;;;;;;;23.73;4.30;;;7.10;99.90;;;;;;5025879;28;20239;-70
2023/01/14 02:52:54;;;;;;;17.90;3.93;;;7.10;99.90;;;;;;5023836;28;20202;-69
2023/01/14 02:55:34;;;;;;;19.60;3.63;;;7.10;99.90;;;;;;5034799;28;20668;-69
2023/01/14 02:58:23;;;;;;;21.77;4.93;;;7.00;99.90;;;;;;5026391;28;20753;-69
2023/01/14 03:01:05;;;;;;;22.33;4.07;;;6.90;99.90;;;;;;5020440;28;20579;-69
2023/01/14 03:03:57;;;;;;;23.93;4.40;;;6.90;99.90;;;;;;5026491;28;20300;-69
2023/01/14 03:06:51;;;;;;;19.93;4.00;;;6.90;99.90;;;;;;5028435;28;20532;-69
2023/01/14 03:09:41;;;;;;;19.40;4.13;;;6.90;99.90;;;;;;5021933;28;20321;-69
2023/01/14 03:12:18;;;;;;;24.80;3.80;;;6.80;99.90;;;;;;5021395;28;20243;-69
2023/01/14 03:14:58;;;;;;;26.97;4.10;;;6.80;99.90;;;;;;5024238;28;20222;-70
2023/01/14 03:17:34;;;;;;;21.73;4.47;;;6.80;99.90;;;;;;5029833;28;20226;-69
2023/01/14 03:20:19;;;;;;;20.47;4.00;;;6.70;99.90;;;;;;5027057;28;20216;-69
2023/01/14 03:22:49;;;;;;;17.63;3.90;;;6.70;99.90;;;;;;5020734;28;20276;-70
2023/01/14 03:25:18;;;;;;;18.73;4.00;;;6.60;99.90;;;;;;5029570;28;20205;-69
2023/01/14 03:27:47;;;;;;;17.63;4.63;;;6.60;99.90;;;;;;5023731;28;20216;-69
2023/01/14 03:30:26;;;;;;;18.33;4.07;;;6.60;99.90;;;;;;5027951;28;20238;-70
2023/01/14 03:33:01;;;;;;;19.63;3.90;;;6.60;99.90;;;;;;5025999;28;20255;-70
2023/01/14 03:35:33;;;;;;;20.20;4.50;;;6.60;99.90;;;;;;5029101;28;20332;-70
2023/01/14 03:38:29;;;;;;;22.63;4.80;;;6.50;99.90;;;;;;5025948;28;20687;-69
2023/01/14 03:40:59;;;;;;;25.23;4.23;;;6.50;99.90;;;;;;5018730;28;20767;-69
2023/01/14 03:44:02;;;;;;;17.33;4.60;;;6.50;99.90;;;;;;5026459;28;20209;-69
2023/01/14 03:46:29;;;;;;;28.20;5.00;;;6.40;99.90;;;;;;5010353;28;20221;-69
2023/01/14 03:48:56;;;;;;;27.90;4.60;;;6.40;99.90;;;;;;5015952;28;20659;-70
2023/01/14 03:51:31;;;;;;;18.83;4.63;;;6.40;99.90;;;;;;5026304;28;20209;-69
2023/01/14 03:54:21;;;;;;;22.13;4.70;;;6.40;99.90;;;;;;5020284;28;20199;-69
2023/01/14 03:57:17;;;;;;;32.47;5.43;;;6.40;99.90;;;;;;5022409;28;20215;-70
2023/01/14 04:00:04;;;;;;;30.80;5.97;;;6.40;99.90;;;;;;5028441;28;20294;-69
2023/01/14 04:02:32;;;;;;;19.57;5.30;;;6.40;99.90;;;;;;5022946;28;20206;-70
2023/01/14 04:04:59;;;;;;;18.73;5.80;;;6.30;99.90;;;;;;5020921;28;20766;-70
2023/01/14 04:07:26;;;;;;;23.77;5.23;;;6.30;99.90;;;;;;5028148;28;20233;-70
2023/01/14 04:09:53;;;;;;;27.90;5.70;;;6.30;99.90;;;;;;5023311;28;20234;-70
2023/01/14 04:12:20;;;;;;;15.57;4.90;;;6.30;99.90;;;;;;5023841;28;20675;-70
2023/01/14 04:17:37;;;;;;;26.40;5.63;;;6.30;99.90;;;;;;5025769;28;20302;-69
2023/01/14 04:20:05;;;;;;;29.03;5.53;;;6.30;99.90;;;;;;5029272;28;20670;-70
2023/01/14 04:22:32;;;;;;;18.83;5.10;;;6.30;99.90;;;;;;5017324;28;20200;-69
2023/01/14 04:24:59;;;;;;;25.93;5.10;;;6.20;99.90;;;;;;5027695;28;20203;-70
2023/01/14 04:27:25;;;;;;;26.13;5.57;;;6.20;99.90;;;;;;5028370;28;20194;-69
2023/01/14 04:29:52;;;;;;;27.83;5.40;;;6.20;99.90;;;;;;5020398;28;20321;-69
2023/01/14 04:32:19;;;;;;;36.20;6.90;;;6.20;99.90;;;;;;5024852;28;20241;-69
2023/01/14 04:34:45;;;;;;;33.77;6.03;;;6.20;99.90;;;;;;5022205;28;20692;-69
2023/01/14 04:37:12;;;;;;;26.40;5.50;;;6.30;99.90;;;;;;5013298;28;20212;-69
2023/01/14 04:39:39;;;;;;;32.60;6.47;;;6.30;99.90;;;;;;5024756;28;20698;-70
2023/01/14 04:42:28;;;;;;;25.83;6.07;;;6.30;99.90;;;;;;5019715;28;20281;-69
2023/01/14 04:45:01;;;;;;;25.53;6.17;;;6.30;99.90;;;;;;5021989;28;20219;-70
2023/01/14 04:47:28;;;;;;;26.00;6.33;;;6.30;99.90;;;;;;5019749;28;20311;-69
2023/01/14 04:49:55;;;;;;;30.47;5.93;;;6.30;99.90;;;;;;5029546;28;20292;-69
2023/01/14 04:52:25;;;;;;;28.67;5.73;;;6.30;99.90;;;;;;5020762;28;20601;-70
2023/01/14 04:54:52;;;;;;;29.03;5.60;;;6.30;99.90;;;;;;5018690;28;20667;-69
2023/01/14 04:57:19;;;;;;;35.63;6.47;;;6.40;99.90;;;;;;5030272;28;20282;-69
2023/01/14 04:59:45;;;;;;;36.20;6.57;;;6.40;99.90;;;;;;5016527;28;20219;-70
2023/01/14 05:02:12;;;;;;;25.17;5.23;;;6.40;99.90;;;;;;5023823;28;20854;-70
2023/01/14 05:04:39;;;;;;;42.27;5.87;;;6.50;99.90;;;;;;5018487;28;20205;-70
2023/01/14 05:07:06;;;;;;;27.80;6.37;;;6.50;99.90;;;;;;5023950;28;20235;-70
2023/01/14 05:09:32;;;;;;;23.67;5.37;;;6.50;99.90;;;;;;5026042;28;20732;-70
2023/01/14 05:11:59;;;;;;;30.03;6.27;;;6.60;99.90;;;;;;5027539;28;20199;-70
2023/01/14 05:14:26;;;;;;;28.03;5.20;;;6.60;99.90;;;;;;5027819;28;20682;-69
2023/01/14 05:16:53;;;;;;;32.80;5.97;;;6.50;99.90;;;;;;5034612;28;20249;-69
2023/01/14 05:19:22;;;;;;;31.07;6.53;;;6.50;99.90;;;;;;5029638;28;20211;-69
2023/01/14 05:21:48;;;;;;;37.23;5.97;;;6.50;99.90;;;;;;5035137;28;20228;-69
2023/01/14 05:24:15;;;;;;;31.87;5.50;;;6.60;99.90;;;;;;5027342;28;20275;-70
2023/01/14 05:26:42;;;;;;;29.37;5.63;;;6.60;99.90;;;;;;5028647;28;20666;-70
2023/01/14 05:29:08;;;;;;;27.47;6.70;;;6.60;99.90;;;;;;5029417;28;20204;-70
2023/01/14 05:31:35;;;;;;;31.80;5.43;;;6.60;99.90;;;;;;5024096;28;20312;-71
2023/01/14 05:34:03;;;;;;;22.80;5.40;;;6.60;99.90;;;;;;5032901;28;20213;-70
2023/01/14 05:36:36;;;;;;;23.37;6.03;;;6.70;99.90;;;;;;5027661;28;20238;-68
2023/01/14 05:39:02;;;;;;;32.73;6.57;;;6.70;99.90;;;;;;5032111;28;20231;-70
2023/01/14 05:41:29;;;;;;;33.67;6.90;;;6.70;99.90;;;;;;5029080;28;20730;-70
2023/01/14 05:46:41;;;;;;;28.17;7.23;;;6.70;99.90;;;;;;5028616;28;20223;-69
2023/01/14 05:49:08;;;;;;;32.53;6.17;;;6.70;99.90;;;;;;5030291;28;20257;-69
2023/01/14 05:51:34;;;;;;;29.43;6.27;;;6.70;99.90;;;;;;5026155;28;20240;-69
2023/01/14 05:54:01;;;;;;;29.47;6.77;;;6.70;99.90;;;;;;5030744;28;20308;-69
2023/01/14 05:56:28;;;;;;;21.20;5.80;;;6.70;99.90;;;;;;5028934;28;20216;-70
2023/01/14 05:58:54;;;;;;;29.73;7.63;;;6.80;99.90;;;;;;5024489;28;20655;-69
2023/01/14 06:06:53;;;;;;;28.10;6.33;;;6.80;99.90;;;;;;5026854;28;20256;-70
2023/01/14 06:09:20;;;;;;;24.23;5.07;;;6.80;99.90;;;;;;5024769;28;20686;-70
2023/01/14 06:12:09;;;;;;;27.50;5.47;;;6.80;99.90;;;;;;5027980;28;20293;-70
2023/01/14 06:14:34;;;;;;;20.90;5.10;;;6.80;99.90;;;;;;5029210;28;20208;-69
2023/01/14 06:17:06;;;;;;;25.57;5.40;;;6.80;99.90;;;;;;5030801;28;20219;-69
2023/01/14 06:19:33;;;;;;;31.13;5.90;;;6.80;99.90;;;;;;5025220;28;20233;-68
2023/01/14 06:22:00;;;;;;;24.93;5.40;;;6.80;99.90;;;;;;5025102;28;20204;-69
2023/01/14 06:24:27;;;;;;;20.47;5.50;;;6.80;99.90;;;;;;5027291;28;20282;-70
2023/01/14 06:26:54;;;;;;;29.73;6.47;;;6.80;99.90;;;;;;5029262;28;20197;-70
2023/01/14 06:29:20;;;;;;;29.03;6.60;;;6.80;99.90;;;;;;5026999;28;20212;-69
2023/01/14 06:31:47;;;;;;;23.60;4.57;;;6.80;99.90;;;;;;5032085;28;20213;-70
2023/01/14 06:34:14;;;;;;;25.60;4.93;;;6.80;99.90;;;;;;5025670;28;20205;-69
2023/01/14 06:36:40;;;;;;;31.03;5.63;;;6.80;99.90;;;;;;5031386;28;20744;-69
2023/01/14 06:39:07;;;;;;;19.90;5.80;;;6.80;99.90;;;;;;5025410;28;20226;-69
2023/01/14 06:41:34;;;;;;;29.50;4.70;;;6.80;99.90;;;;;;5030306;28;20305;-70
2023/01/14 06:44:02;;;;;;;22.40;4.07;;;6.80;99.90;;;;;;5027412;28;20564;-69
2023/01/14 06:46:30;;;;;;;21.03;4.47;;;6.90;99.90;;;;;;5028453;28;20213;-70
2023/01/14 06:48:56;;;;;;;26.63;5.67;;;6.90;99.90;;;;;;5025161;28;20206;-70
2023/01/14 06:51:25;;;;;;;20.30;5.83;;;6.90;99.90;;;;;;5031510;28;20596;-70
2023/01/14 06:53:53;;;;;;;26.60;4.30;;;6.90;99.90;;;;;;5028625;28;20256;-70
2023/01/14 06:56:20;;;;;;;18.63;4.77;;;6.90;99.90;;;;;;5028669;28;20333;-71
2023/01/14 06:58:48;;;;;;;23.63;4.23;;;6.90;99.90;;;;;;5029335;28;20298;-69
2023/01/14 07:01:15;;;;;;;16.00;4.03;;;7.00;99.90;;;;;;5027224;28;20228;-70
2023/01/14 07:03:42;;;;;;;24.10;4.47;;;7.00;99.90;;;;;;5029723;28;20884;-69
2023/01/14 07:06:09;;;;;;;25.93;4.87;;;7.00;99.90;;;;;;5028974;28;20204;-69
2023/01/14 07:08:36;;;;;;;22.63;4.27;;;7.00;99.90;;;;;;5027195;28;20256;-69
2023/01/14 07:11:03;;;;;;;22.53;4.53;;;7.10;99.90;;;;;;5028294;28;20233;-69
2023/01/14 07:13:30;;;;;;;19.27;3.60;;;7.10;99.90;;;;;;5022620;28;20248;-69
2023/01/14 07:15:57;;;;;;;23.30;4.80;;;7.10;99.90;;;;;;5026650;28;20264;-70
2023/01/14 07:18:28;;;;;;;22.80;4.27;;;7.10;99.90;;;;;;5022633;28;20356;-70
2023/01/14 07:20:56;;;;;;;23.50;4.23;;;7.20;99.90;;;;;;5027534;28;20304;-70
2023/01/14 07:23:24;;;;;;;21.83;4.20;;;7.20;99.90;;;;;;5027929;28;20646;-70
2023/01/14 07:25:55;;;;;;;22.63;4.13;;;7.20;99.90;;;;;;5023206;28;20206;-69
2023/01/14 07:28:24;;;;;;;27.90;4.80;;;7.20;99.90;;;;;;5025020;28;20202;-68
2023/01/14 07:30:51;;;;;;;21.33;3.70;;;7.20;99.90;;;;;;5020996;28;20738;-68
2023/01/14 07:33:18;;;;;;;25.17;4.00;;;7.20;99.90;;;;;;5032461;28;20208;-69
2023/01/14 07:35:45;;;;;;;20.63;3.80;;;7.20;99.90;;;;;;5024434;28;20235;-69
2023/01/14 07:38:11;;;;;;;27.60;3.83;;;7.20;99.90;;;;;;5026569;28;20209;-69
2023/01/14 07:40:39;;;;;;;20.67;4.00;;;;;;;;;;5019594;28;20240;-69
2023/01/14 07:43:05;;;;;;;21.37;4.10;;;7.20;99.90;;;;;;5032120;28;20206;-69
2023/01/14 07:45:32;;;;;;;26.43;4.50;;;7.20;99.90;;;;;;5023882;28;20290;-70
2023/01/14 07:47:59;;;;;;;21.57;4.37;;;7.20;99.90;;;;;;5028428;28;20760;-69
2023/01/14 07:50:26;;;;;;;18.47;3.57;;;7.20;99.90;;;;;;5021634;28;20231;-70
2023/01/14 07:52:54;;;;;;;29.37;4.97;;;7.20;99.90;;;;;;5034048;28;20201;-70
2023/01/14 07:55:22;;;;;;;20.70;3.70;;;7.20;99.90;;;;;;5018972;28;20215;-69
2023/01/14 07:57:49;;;;;;;24.67;3.87;;;7.20;99.90;;;;;;5027237;28;20212;-68
2023/01/14 08:00:16;;;;;;;26.37;4.73;;;7.20;99.90;;;;;;5021373;28;20651;-69
2023/01/14 08:02:43;;;;;;;24.47;4.37;;;7.20;99.90;;;;;;5013268;28;20264;-68
2023/01/14 08:05:10;;;;;;;22.60;5.47;;;7.20;99.90;;;;;;5023030;28;20228;-68
2023/01/14 08:07:37;;;;;;;35.13;9.03;;;7.20;99.90;;;;;;5026242;28;20220;-68
2023/01/14 08:10:04;;;;;;;22.13;4.70;;;7.20;99.90;;;;;;5030217;28;20201;-69
2023/01/14 08:12:32;;;;;;;19.77;4.80;;;7.10;99.90;;;;;;5023294;28;20644;-69
2023/01/14 08:15:03;;;;;;;27.07;4.97;;;7.10;99.90;;;;;;5029763;28;20645;-68
2023/01/14 08:17:29;;;;;;;20.97;5.07;;;7.10;99.90;;;;;;5032167;28;20225;-69
2023/01/14 08:19:56;;;;;;;22.50;4.33;;;7.10;99.90;;;;;;5027106;28;20260;-68
2023/01/14 08:22:23;;;;;;;15.90;4.43;;;7.10;99.90;;;;;;5028488;28;20220;-69
2023/01/14 08:24:50;;;;;;;23.53;4.97;;;7.10;99.90;;;;;;5030238;28;20213;-69
2023/01/14 08:27:17;;;;;;;15.23;3.97;;;7.10;99.90;;;;;;5025829;28;20541;-69
2023/01/14 08:29:45;;;;;;;24.97;4.53;;;7.10;99.90;;;;;;5030807;28;20218;-69
2023/01/14 08:32:13;;;;;;;11.10;3.93;;;7.10;99.90;;;;;;5024828;28;20236;-71
2023/01/14 08:34:40;;;;;;;19.33;5.20;;;7.10;99.90;;;;;;5034394;28;20208;-70
2023/01/14 08:37:07;;;;;;;11.10;3.60;;;7.10;99.90;;;;;;5025582;28;20210;-69
2023/01/14 08:39:34;;;;;;;16.03;4.23;;;7.10;99.90;;;;;;5030932;28;20633;-69
2023/01/14 08:42:01;;;;;;;18.83;4.37;;;7.10;99.90;;;;;;5020289;28;20205;-70
2023/01/14 08:44:27;;;;;;;19.90;4.80;;;7.30;99.90;;;;;;5023644;28;20205;-67
2023/01/14 08:46:54;;;;;;;13.67;4.33;;;7.20;99.90;;;;;;5025494;28;20308;-69
2023/01/14 08:49:21;;;;;;;15.57;4.57;;;7.10;99.90;;;;;;5008072;28;20620;-69
2023/01/14 08:51:49;;;;;;;17.67;5.07;;;7.20;99.90;;;;;;5025755;28;20344;-69
2023/01/14 08:54:15;;;;;;;11.83;4.43;;;7.20;99.90;;;;;;5026467;28;20269;-69
2023/01/14 08:56:42;;;;;;;12.30;4.00;;;7.20;99.90;;;;;;5027516;28;20666;-69
2023/01/14 08:59:11;;;;;;;10.67;4.00;;;7.40;99.90;;;;;;5026495;28;20623;-69
2023/01/14 09:01:38;;;;;;;17.10;4.00;;;7.30;99.90;;;;;;5025377;28;20244;-69
2023/01/14 09:04:19;;;;;;;10.27;3.60;;;7.30;99.90;;;;;;5019101;28;20647;-68
2023/01/14 09:17:58;;;;;;;13.83;4.10;;;7.50;99.90;;;;;;5027408;28;20304;-69
2023/01/14 09:20:30;;;;;;;10.63;4.27;;;7.50;99.90;;;;;;5019969;28;20304;-68
2023/01/14 09:22:59;;;;;;;10.23;3.50;;;7.80;99.90;;;;;;5024853;28;20252;-69
2023/01/14 09:25:26;;;;;;;10.37;4.13;;;7.40;99.90;;;;;;5021830;28;20248;-69
2023/01/14 09:27:53;;;;;;;13.80;4.53;;;7.50;99.90;;;;;;5022642;28;20841;-68
2023/01/14 09:30:22;;;;;;;11.73;4.03;;;7.50;99.90;;;;;;5018911;28;20640;-69
2023/01/14 09:32:49;;;;;;;10.13;4.30;;;7.50;99.90;;;;;;5025199;28;20253;-69
2023/01/14 09:35:16;;;;;;;12.53;4.00;;;7.50;99.90;;;;;;5018055;28;20242;-69
2023/01/14 09:37:42;;;;;;;9.43;3.67;;;7.60;99.90;;;;;;5020925;28;20290;-69
2023/01/14 09:40:10;;;;;;;10.40;3.73;;;7.60;99.90;;;;;;5021469;28;20268;-69
2023/01/14 09:42:47;;;;;;;9.07;4.00;;;7.60;99.90;;;;;;5023254;28;20207;-69
2023/01/14 09:45:18;;;;;;;12.13;4.33;;;7.60;99.90;;;;;;5026644;28;20215;-69
2023/01/14 09:47:45;;;;;;;15.60;5.00;;;7.70;99.90;;;;;;5020767;28;20260;-69
2023/01/14 09:50:16;;;;;;;9.73;4.30;;;7.70;99.90;;;;;;5019121;28;20641;-69
2023/01/14 09:53:04;;;;;;;11.60;4.43;;;7.70;99.90;;;;;;5023815;28;20238;-69
2023/01/14 09:55:40;;;;;;;11.10;3.80;;;7.70;99.90;;;;;;5030119;28;20245;-69
2023/01/14 09:58:22;;;;;;;7.70;3.73;;;7.70;99.90;;;;;;5025777;28;20272;-69
2023/01/14 10:01:15;;;;;;;7.73;3.20;;;7.80;99.90;;;;;;5021354;28;20234;-69
2023/01/14 10:04:00;;;;;;;7.10;2.97;;;7.80;99.90;;;;;;5024220;28;20334;-69
2023/01/14 10:06:27;;;;;;;9.20;3.80;;;7.80;99.90;;;;;;5029375;28;20281;-69
2023/01/14 10:09:14;;;;;;;9.27;2.70;;;7.90;99.90;;;;;;5026902;28;20294;-69
2023/01/14 10:11:45;;;;;;;9.17;2.67;;;7.90;99.90;;;;;;5030453;28;20317;-69
2023/01/14 10:14:40;;;;;;;7.53;2.40;;;8.00;99.90;;;;;;5026013;28;20195;-69
2023/01/14 10:17:11;;;;;;;9.60;3.00;;;8.00;99.90;;;;;;5026255;28;20301;-69
2023/01/14 10:19:50;;;;;;;7.87;2.77;;;8.00;99.90;;;;;;5024342;28;20208;-69
2023/01/14 10:22:38;;;;;;;9.33;2.80;;;8.00;99.90;;;;;;5036409;28;20263;-68
2023/01/14 10:25:19;;;;;;;5.63;2.67;;;8.10;99.90;;;;;;5020986;28;20656;-68
2023/01/14 10:27:52;;;;;;;7.90;2.50;;;8.10;99.90;;;;;;5028235;28;20298;-69
2023/01/14 10:30:26;;;;;;;13.30;3.30;;;8.10;99.90;;;;;;5026731;28;20267;-69
2023/01/14 10:32:54;;;;;;;5.10;2.73;;;8.10;99.90;;;;;;5021067;28;20551;-69
2023/01/14 10:35:33;;;;;;;6.83;2.60;;;8.10;99.90;;;;;;5031659;28;20225;-68
2023/01/14 10:38:01;;;;;;;6.90;2.77;;;8.20;99.90;;;;;;5021464;28;20278;-68
2023/01/14 10:40:29;;;;;;;7.40;2.63;;;8.20;99.90;;;;;;5015124;28;20246;-68
2023/01/14 10:43:00;;;;;;;7.40;2.60;;;8.20;99.90;;;;;;5037971;28;20272;-68
2023/01/14 10:45:27;;;;;;;8.07;2.30;;;8.20;99.90;;;;;;5020332;28;20289;-69
2023/01/14 10:48:02;;;;;;;5.13;2.30;;;8.40;99.90;;;;;;5030743;28;20456;-68
2023/01/14 10:50:29;;;;;;;6.93;2.57;;;8.30;99.90;;;;;;5023116;28;20215;-69
2023/01/14 10:53:17;;;;;;;6.57;2.47;;;8.30;99.90;;;;;;5023640;28;20213;-70
2023/01/14 10:55:54;;;;;;;7.27;2.10;;;8.30;99.90;;;;;;5029613;28;20270;-69
2023/01/14 10:58:30;;;;;;;4.00;2.13;;;8.40;99.90;;;;;;5015021;28;20211;-70
2023/01/14 11:01:06;;;;;;;7.40;2.37;;;8.30;99.90;;;;;;5028747;28;20704;-68
2023/01/14 11:03:37;;;;;;;10.97;2.23;;;8.40;99.90;;;;;;5029808;28;20207;-70
2023/01/14 11:06:11;;;;;;;3.77;2.20;;;8.40;99.90;;;;;;5032369;28;20200;-69
2023/01/14 11:08:49;;;;;;;3.93;2.23;;;8.40;99.90;;;;;;5029381;28;20281;-69
2023/01/14 11:11:25;;;;;;;3.83;2.03;;;8.50;99.90;;;;;;5026351;28;20232;-67
2023/01/14 11:13:53;;;;;;;8.23;2.30;;;8.50;99.90;;;;;;5023790;28;20304;-69
2023/01/14 11:16:27;;;;;;;5.73;2.30;;;8.60;99.90;;;;;;5025798;28;20247;-67
2023/01/14 11:19:02;;;;;;;7.93;3.10;;;8.50;99.90;;;;;;5034248;28;20208;-68
2023/01/14 11:21:39;;;;;;;8.50;2.33;;;8.60;99.90;;;;;;5031468;28;20310;-69
2023/01/14 11:24:26;;;;;;;9.43;2.77;;;8.70;99.90;;;;;;5027250;28;20224;-69
2023/01/14 11:27:22;;;;;;;7.83;2.60;;;8.70;99.90;;;;;;5029183;28;20192;-69
2023/01/14 11:29:57;;;;;;;6.90;2.77;;;8.70;99.90;;;;;;5020181;28;20692;-69
2023/01/14 11:32:27;;;;;;;7.50;2.77;;;8.70;99.90;;;;;;5029012;28;20324;-68
2023/01/14 11:34:56;;;;;;;5.27;2.20;;;8.90;99.90;;;;;;5025408;28;20200;-69
2023/01/14 11:37:33;;;;;;;4.33;2.20;;;8.90;99.90;;;;;;5028801;28;20669;-69
2023/01/14 11:40:01;;;;;;;6.20;2.43;;;8.90;99.90;;;;;;5029389;28;20232;-69
2023/01/14 11:42:41;;;;;;;3.83;2.10;;;8.90;99.90;;;;;;5029453;28;20209;-68
2023/01/14 11:45:17;;;;;;;5.57;2.30;;;8.90;99.90;;;;;;5031646;28;20208;-69
2023/01/14 11:47:55;;;;;;;5.00;2.33;;;8.90;99.90;;;;;;5030388;28;20632;-68
2023/01/14 11:50:27;;;;;;;4.40;1.77;;;9.10;99.90;;;;;;5028278;28;20665;-69
2023/01/14 11:53:18;;;;;;;3.37;1.80;;;9.00;99.90;;;;;;5017956;28;20232;-70
2023/01/14 11:55:49;;;;;;;2.60;1.70;;;9.10;99.90;;;;;;5021617;28;20216;-68
2023/01/14 11:58:21;;;;;;;4.87;1.83;;;8.90;99.90;;;;;;5021954;28;20223;-68
2023/01/14 12:01:04;;;;;;;5.10;1.73;;;9.10;99.90;;;;;;5023578;28;20286;-67
2023/01/14 12:03:48;;;;;;;2.43;1.80;;;9.10;99.90;;;;;;5027201;28;20198;-69
2023/01/14 12:06:22;;;;;;;4.93;2.47;;;9.30;99.90;;;;;;5026868;28;20271;-68
2023/01/14 12:09:00;;;;;;;3.40;1.70;;;9.30;99.90;;;;;;5024179;28;20673;-69
2023/01/14 12:11:51;;;;;;;2.27;1.30;;;9.10;99.90;;;;;;5021452;28;20295;-68
2023/01/14 12:17:30;;;;;;;3.67;1.50;;;9.30;99.90;;;;;;5024297;28;20279;-69
2023/01/14 12:20:11;;;;;;;2.83;1.50;;;9.30;99.90;;;;;;5028201;28;20584;-70
2023/01/14 12:23:05;;;;;;;3.67;1.60;;;9.40;99.90;;;;;;5027501;28;20244;-68
2023/01/14 12:25:40;;;;;;;2.53;1.50;;;9.40;99.90;;;;;;5016841;28;20293;-68
2023/01/14 12:28:22;;;;;;;2.90;1.90;;;9.40;99.90;;;;;;5022606;28;20212;-68
2023/01/14 12:31:08;;;;;;;2.73;1.50;;;9.40;99.90;;;;;;5019170;28;20620;-69
2023/01/14 12:33:41;;;;;;;2.73;1.70;;;9.50;99.90;;;;;;5020977;28;20197;-68
2023/01/14 12:36:32;;;;;;;5.43;1.57;;;9.50;99.90;;;;;;5027469;28;20750;-69
2023/01/14 12:45:41;;;;;;;4.37;2.00;;;9.60;99.90;;;;;;5025976;28;20678;-68
2023/01/14 12:48:10;;;;;;;3.20;1.40;;;9.70;99.90;;;;;;5022628;28;20362;-68
2023/01/14 12:50:59;;;;;;;1.93;1.73;;;9.60;99.90;;;;;;5025433;28;20212;-68
2023/01/14 12:53:43;;;;;;;4.00;1.57;;;9.70;99.90;;;;;;5019970;28;20272;-69
2023/01/14 12:56:26;;;;;;;2.67;1.70;;;9.70;99.90;;;;;;5027042;28;20299;-69
2023/01/14 12:58:58;;;;;;;3.47;1.70;;;9.60;99.90;;;;;;5025601;28;20625;-69
2023/01/14 13:01:30;;;;;;;2.50;1.60;;;9.30;99.90;;;;;;5021252;28;20230;-69
2023/01/14 13:04:01;;;;;;;5.27;1.60;;;9.60;99.90;;;;;;5024050;28;20212;-68
2023/01/14 13:06:39;;;;;;;4.17;1.60;;;9.60;99.90;;;;;;5023809;28;20211;-68
2023/01/14 13:09:18;;;;;;;3.40;1.60;;;9.70;99.90;;;;;;5026162;28;20306;-67
2023/01/14 13:11:48;;;;;;;2.97;1.40;;;9.70;99.90;;;;;;5028717;28;20256;-69
2023/01/14 13:14:34;;;;;;;1.53;1.43;;;9.70;99.90;;;;;;5025006;28;20207;-69
2023/01/14 13:17:31;;;;;;;1.70;1.47;;;9.70;99.90;;;;;;5025587;28;20224;-69
2023/01/14 13:20:04;;;;;;;3.03;1.57;;;9.80;99.90;;;;;;5054290;28;20807;-69
2023/01/14 13:22:43;;;;;;;1.87;1.57;;;9.80;99.90;;;;;;5023562;28;20212;-68
2023/01/14 13:25:19;;;;;;;1.97;1.43;;;9.80;99.90;;;;;;5019277;28;20213;-69
2023/01/14 13:27:46;;;;;;;1.53;1.40;;;9.80;99.90;;;;;;5023477;28;20218;-69
2023/01/14 13:30:19;;;;;;;1.33;1.20;;;9.90;99.90;;;;;;5024862;28;20230;-69
2023/01/14 13:33:01;;;;;;;1.97;1.43;;;9.80;99.90;;;;;;5027446;28;20226;-68
2023/01/14 13:35:33;;;;;;;2.37;1.40;;;9.90;99.90;;;;;;5029000;28;20669;-68
2023/01/14 13:38:02;;;;;;;1.80;1.30;;;9.80;99.90;;;;;;5024916;28;20202;-69
2023/01/14 13:40:36;;;;;;;1.87;1.63;;;9.80;99.90;;;;;;5028494;28;20273;-69
2023/01/14 13:43:06;;;;;;;1.43;1.30;;;9.90;99.90;;;;;;5031672;28;20240;-68
2023/01/14 13:45:36;;;;;;;2.60;1.20;;;9.80;99.90;;;;;;5031904;28;20197;-69
2023/01/14 13:48:20;;;;;;;2.10;1.90;;;10.10;99.90;;;;;;5020668;28;20230;-69
2023/01/14 13:50:49;;;;;;;2.60;1.23;;;9.90;99.90;;;;;;5024559;28;20237;-67
2023/01/14 13:53:15;;;;;;;2.70;1.20;;;9.90;99.90;;;;;;5016156;28;20328;-69